Castor, LA (71016)

1:15 AM CST on December 29, 2014 (GMT -0600)
Natchitoches Regional | Change Station
CLOSE
Current Station
Airport
Location: Natchitoches,
Elevation: 118 ft
Nearby Weather Stations

Elev 118 ft 31.74 °N, 93.10 °W | Updated 20 minutes ago

Overcast
Overcast
44 °F
Feels Like 40 °F
N
7
Wind Variable Wind from East

Today
High -- | Low -- °F
--% Chance of Precip.
Yesterday
High -- | Low -- °F
Precip. -- in
7:12 AM 5:16 PM
First Quarter, 56% visible
Pressure 30.14 in
Visibility 10.0 miles
Clouds Mostly Cloudy 700 ft
Overcast 3400 ft
Windchill 40 °F
Dew Point 43 °F
Humidity 97%
Rainfall 0.00 in
Snow Depth Not available.
UV 0 out of 12
Pollen .50 out of 12
Air Quality Not available.
Flu Activity Not available.
METAR KIER 290655Z AUTO 08006KT 10SM BKN007 OVC034 07/06 A3014 RMK AO2 T00660061

More Conditions Fewer Conditions

Pressure 30.14 in
Visibility 10.0 miles
Clouds Mostly Cloudy 700 ft
Overcast 3400 ft
Windchill 40 °F
Dew Point 43 °F
Humidity 97%
Rainfall 0.00 in
Snow Depth Not available.
UV 0 out of 12
Pollen .50 out of 12
Air Quality Not available.
Flu Activity Not available.
METAR KIER 290655Z AUTO 08006KT 10SM BKN007 OVC034 07/06 A3014 RMK AO2 T00660061

More Conditions Fewer Conditions

Nowcast | as of 11:56 PM CST on December 28, 2014

Patchy drizzle and fog will affect areas mainly east of a line from Jacksonville and Longview Texas to Prescott Arkansas. Visibilities may decrease to one mile or less at times. Motorists are urged to use caution.

×

10-Day Weather Forecast

Almanac

Astronomy

Dec. 29, 2014 Rise Set
Actual Time
Civil Twilight
Nautical Twilight
Astronomical Twilight
Moon
Length of Visible Light
Length of Day
Tomorrow will be .
, % of the Moon is Illuminated

Today's Extremes

State Highs State Lows

Community

WunderPhotos

Upload Photos

1,781,547 photos uploaded!

WunderBlogs® & News

Nearby

Air Quality

  Air Quality AQ Index Pollutant
Not available.

Snow Depth

Station Depth Elevation

Earthquake Activity

City Distance Mag. Time & Date
Minimum magnitude displayed is 2.5.

Coastal Water Temperatures

Place Temperature

Nearby Weather Stations